Domov               UVHVVR             MKGP            O straneh              
ZDRAVSTVENO VARSTVO RASTLIN
  MREŽA AGROMET. POSTAJ
 ► PROGNOSTIČNA OBVESTILA
AGROMETEOROLOŠKI PODATKI -
ARSO
OBVLADOVANJE TVEGANJ ZARADI
NEUGODNIH VREMENSKIH RAZMER
  ► NARAVNE NESREČE
  ► SUŠA/MOČA
  ► NAMAKANJE
  ► ŽLED (gozdarstvo)
KARTOGRAFSKI PRIKAZI
SPLETNE POVEZAVE
PROJEKTI IN PUBLIKACIJE

AGROMETEOROLOŠKA MREŽA: VREMENSKE POSTAJE IN FENOLOŠKA OPAZOVANJA

Pregled podatkov za lokacijo Višnjevik, meteorološka postaja 857246

Pregled senzorjev na lokaciji

ID Ime Zadnja
vrednost
Datum
zadnje
spremembe
Tip
senzorja
3902 Temperatura 2 m ( °C) 20,98 °C 19.8.2017 05:00 50YA
3903 Relativna vlaga 2 m (% RH) 71,45 % RH 19.8.2017 05:00 50YA
3904 Omočenost lista (U) 0 U 19.8.2017 05:00 A730WET
3906 Padavine 0.2 mm (mm) 0 mm 19.8.2017 05:00 Rain-O-Matic

Pregled podatkov zadnjih 24 ur

Zap.
št.
Datum in čas Višnjevik
Omočenost
lista
Padavine
0.2
mm
Relativna
vlaga
2
m
Temperatura
2
m
0 19.8.2017 04:00 0 0 71,63 21,04
1 19.8.2017 03:30 0 0 70,29 21,51
2 19.8.2017 03:00 0 0 69,47 21,78
3 19.8.2017 02:30 0 0 70,26 21,76
4 19.8.2017 02:00 0 0 69,71 21,84
5 19.8.2017 01:30 0 0 69,15 22,08
6 19.8.2017 01:00 0 0 68,94 22,17
7 19.8.2017 00:30 0 0 68,79 22,4
8 19.8.2017 00:00 0 0 69,05 22,55
9 18.8.2017 23:30 0 0 68,95 22,76
10 18.8.2017 23:00 0 0 66,99 23,26
11 18.8.2017 22:30 0 0 64,48 23,81
12 18.8.2017 22:00 0 0 63,55 24
13 18.8.2017 21:30 0 0 64,94 23,85
14 18.8.2017 21:00 0 0 69,33 23,65
15 18.8.2017 20:30 0 0 68,55 24,19
16 18.8.2017 20:00 0 0 65,91 25,22
17 18.8.2017 19:30 0 0 61,78 26,22
18 18.8.2017 19:00 0 0 56,16 27,64
19 18.8.2017 18:30 0 0 48,66 30,02
20 18.8.2017 18:00 0 0 41,61 32,99
21 18.8.2017 17:30 0 0 40,59 34,16
22 18.8.2017 17:00 0 0 39,25 34,74
23 18.8.2017 16:30 0 0 37,93 34,7
24 18.8.2017 16:00 0 0 37,55 34,56
25 18.8.2017 15:30 0 0 38,38 34,95
26 18.8.2017 15:00 0 0 38,4 33,99
27 18.8.2017 14:30 0 0 40,02 33,34
28 18.8.2017 14:00 0 0 40,96 33,31
29 18.8.2017 13:30 0 0 40,41 33,19
30 18.8.2017 13:00 0 0 42,12 32,94
31 18.8.2017 12:30 0 0 43,6 32,72
32 18.8.2017 12:00 0 0 43,46 33,47
33 18.8.2017 11:30 0 0 45,69 33,22
34 18.8.2017 11:00 0 0 46,27 32,5
35 18.8.2017 10:30 0 0 49,24 32,02
36 18.8.2017 10:00 0 0 54,12 30,87
37 18.8.2017 09:30 0 0 57,01 29,85
38 18.8.2017 09:00 0 0 58,08 28,46
39 18.8.2017 08:30 0 0 60,05 27,32
40 18.8.2017 08:00 0 0 62,78 25,59
41 18.8.2017 07:30 0 0 66,17 24,04
42 18.8.2017 07:00 0 0 70,42 22,35
43 18.8.2017 06:30 0 0 71,69 21,63
44 18.8.2017 06:00 0 0 74,32 20,88
© 2011 Ministrstvo za kmetijstvo, gozdarstvo in prehrano. Vse pravice pridržane.